sensor_id;sensor_type;location;lat;lon;timestamp;pressure;altitude;pressure_sealevel;temperature;humidity
10006;BME280;5042;42.626;23.382;2023-12-20T00:01:02;149450.00;;;1.42;100.00
10006;BME280;5042;42.626;23.382;2023-12-20T00:03:29;149439.75;;;1.38;100.00
10006;BME280;5042;42.626;23.382;2023-12-20T00:05:56;149416.56;;;1.29;100.00
10006;BME280;5042;42.626;23.382;2023-12-20T00:08:23;149429.44;;;1.34;100.00
10006;BME280;5042;42.626;23.382;2023-12-20T00:10:50;149446.16;;;1.40;100.00
10006;BME280;5042;42.626;23.382;2023-12-20T00:13:16;149441.00;;;1.38;100.00
10006;BME280;5042;42.626;23.382;2023-12-20T00:15:45;149425.53;;;1.32;100.00
10006;BME280;5042;42.626;23.382;2023-12-20T00:18:12;149434.56;;;1.36;100.00
10006;BME280;5042;42.626;23.382;2023-12-20T00:20:39;149408.81;;;1.25;100.00
10006;BME280;5042;42.626;23.382;2023-12-20T00:23:05;149390.78;;;1.18;100.00
10006;BME280;5042;42.626;23.382;2023-12-20T00:25:33;149408.81;;;1.25;100.00
10006;BME280;5042;42.626;23.382;2023-12-20T00:28:00;149430.69;;;1.34;100.00
10006;BME280;5042;42.626;23.382;2023-12-20T00:30:27;149420.38;;;1.30;100.00
10006;BME280;5042;42.626;23.382;2023-12-20T00:32:56;149395.94;;;1.20;100.00
10006;BME280;5042;42.626;23.382;2023-12-20T00:35:23;149406.25;;;1.24;100.00
10006;BME280;5042;42.626;23.382;2023-12-20T00:37:50;149402.38;;;1.23;100.00
10006;BME280;5042;42.626;23.382;2023-12-20T00:40:17;149401.09;;;1.22;100.00
10006;BME280;5042;42.626;23.382;2023-12-20T00:42:44;149406.25;;;1.24;100.00
10006;BME280;5042;42.626;23.382;2023-12-20T00:45:12;149286.56;;;0.77;100.00
10006;BME280;5042;42.626;23.382;2023-12-20T00:47:39;149344.47;;;1.00;100.00
10006;BME280;5042;42.626;23.382;2023-12-20T00:50:09;149371.50;;;1.11;100.00
10006;BME280;5042;42.626;23.382;2023-12-20T00:52:36;149340.59;;;0.98;100.00
10006;BME280;5042;42.626;23.382;2023-12-20T00:55:04;149383.06;;;1.15;100.00
10006;BME280;5042;42.626;23.382;2023-12-20T00:57:31;149344.47;;;1.00;100.00
10006;BME280;5042;42.626;23.382;2023-12-20T00:59:58;149356.06;;;1.04;100.00
10006;BME280;5042;42.626;23.382;2023-12-20T01:02:25;149383.06;;;1.15;100.00
10006;BME280;5042;42.626;23.382;2023-12-20T01:04:52;149374.09;;;1.12;100.00
10006;BME280;5042;42.626;23.382;2023-12-20T01:07:20;149335.44;;;0.96;100.00
10006;BME280;5042;42.626;23.382;2023-12-20T01:09:47;149352.19;;;1.03;100.00
10006;BME280;5042;42.626;23.382;2023-12-20T01:12:14;149354.75;;;1.04;100.00
10006;BME280;5042;42.626;23.382;2023-12-20T01:14:41;149367.59;;;1.09;100.00
10006;BME280;5042;42.626;23.382;2023-12-20T01:17:08;149357.34;;;1.05;100.00
10006;BME280;5042;42.626;23.382;2023-12-20T01:19:35;149350.91;;;1.02;100.00
10006;BME280;5042;42.626;23.382;2023-12-20T01:22:02;149350.91;;;1.02;100.00
10006;BME280;5042;42.626;23.382;2023-12-20T01:24:30;149363.78;;;1.08;100.00
10006;BME280;5042;42.626;23.382;2023-12-20T01:26:57;149366.31;;;1.09;100.00
10006;BME280;5042;42.626;23.382;2023-12-20T01:29:24;149367.59;;;1.09;100.00
10006;BME280;5042;42.626;23.382;2023-12-20T01:31:51;149357.34;;;1.05;100.00
10006;BME280;5042;42.626;23.382;2023-12-20T01:34:18;149361.19;;;1.06;100.00
10006;BME280;5042;42.626;23.382;2023-12-20T01:36:45;149367.59;;;1.09;100.00
10006;BME280;5042;42.626;23.382;2023-12-20T01:39:12;149374.09;;;1.12;100.00
10006;BME280;5042;42.626;23.382;2023-12-20T01:41:40;149354.75;;;1.04;100.00
10006;BME280;5042;42.626;23.382;2023-12-20T01:44:07;149365.06;;;1.08;100.00
10006;BME280;5042;42.626;23.382;2023-12-20T01:46:34;149338.06;;;0.97;100.00
10006;BME280;5042;42.626;23.382;2023-12-20T01:49:01;149367.59;;;1.09;100.00
10006;BME280;5042;42.626;23.382;2023-12-20T01:51:28;149365.06;;;1.08;100.00
10006;BME280;5042;42.626;23.382;2023-12-20T01:53:57;149335.44;;;0.96;100.00
10006;BME280;5042;42.626;23.382;2023-12-20T01:56:24;149316.16;;;0.89;100.00
10006;BME280;5042;42.626;23.382;2023-12-20T01:58:53;149305.84;;;0.84;100.00
10006;BME280;5042;42.626;23.382;2023-12-20T02:01:21;149323.88;;;0.92;100.00
10006;BME280;5042;42.626;23.382;2023-12-20T02:03:48;149331.56;;;0.95;100.00
10006;BME280;5042;42.626;23.382;2023-12-20T02:06:15;149330.28;;;0.94;100.00
10006;BME280;5042;42.626;23.382;2023-12-20T02:08:42;149344.47;;;1.00;100.00
10006;BME280;5042;42.626;23.382;2023-12-20T02:11:10;149340.59;;;0.98;100.00
10006;BME280;5042;42.626;23.382;2023-12-20T02:13:37;149365.06;;;1.08;100.00
10006;BME280;5042;42.626;23.382;2023-12-20T02:16:05;149363.78;;;1.08;100.00
10006;BME280;5042;42.626;23.382;2023-12-20T02:18:33;149359.91;;;1.06;100.00
10006;BME280;5042;42.626;23.382;2023-12-20T02:20:59;149390.78;;;1.18;100.00
10006;BME280;5042;42.626;23.382;2023-12-20T02:23:28;149348.31;;;1.01;100.00
10006;BME280;5042;42.626;23.382;2023-12-20T02:25:55;149336.72;;;0.97;100.00
10006;BME280;5042;42.626;23.382;2023-12-20T02:28:22;149353.47;;;1.03;100.00
10006;BME280;5042;42.626;23.382;2023-12-20T02:30:49;149323.88;;;0.92;100.00
10006;BME280;5042;42.626;23.382;2023-12-20T02:33:16;149271.09;;;0.71;100.00
10006;BME280;5042;42.626;23.382;2023-12-20T02:35:43;149245.38;;;0.60;100.00
10006;BME280;5042;42.626;23.382;2023-12-20T02:38:10;149256.97;;;0.65;100.00
10006;BME280;5042;42.626;23.382;2023-12-20T02:40:38;149253.09;;;0.63;100.00
10006;BME280;5042;42.626;23.382;2023-12-20T02:43:05;149271.09;;;0.71;100.00
10006;BME280;5042;42.626;23.382;2023-12-20T02:45:32;149251.81;;;0.63;100.00
10006;BME280;5042;42.626;23.382;2023-12-20T02:47:59;149274.97;;;0.72;100.00
10006;BME280;5042;42.626;23.382;2023-12-20T02:50:26;149272.38;;;0.71;100.00
10006;BME280;5042;42.626;23.382;2023-12-20T02:52:53;149277.53;;;0.73;100.00
10006;BME280;5042;42.626;23.382;2023-12-20T02:55:20;149273.69;;;0.72;100.00
10006;BME280;5042;42.626;23.382;2023-12-20T02:57:48;149291.72;;;0.79;100.00
10006;BME280;5042;42.626;23.382;2023-12-20T03:00:15;149308.44;;;0.86;100.00
10006;BME280;5042;42.626;23.382;2023-12-20T03:02:42;149323.88;;;0.92;100.00
10006;BME280;5042;42.626;23.382;2023-12-20T03:05:09;149340.59;;;0.98;100.00
10006;BME280;5042;42.626;23.382;2023-12-20T03:07:36;149260.84;;;0.67;100.00
10006;BME280;5042;42.626;23.382;2023-12-20T03:10:04;149295.53;;;0.80;100.00
10006;BME280;5042;42.626;23.382;2023-12-20T03:12:31;149308.44;;;0.86;100.00
10006;BME280;5042;42.626;23.382;2023-12-20T03:14:59;149278.84;;;0.74;100.00
10006;BME280;5042;42.626;23.382;2023-12-20T03:17:26;149289.13;;;0.78;100.00
10006;BME280;5042;42.626;23.382;2023-12-20T03:19:53;149296.88;;;0.81;100.00
10006;BME280;5042;42.626;23.382;2023-12-20T03:22:20;149245.38;;;0.60;100.00
10006;BME280;5042;42.626;23.382;2023-12-20T03:24:47;149287.84;;;0.77;100.00
10006;BME280;5042;42.626;23.382;2023-12-20T03:27:14;149293.00;;;0.79;100.00
10006;BME280;5042;42.626;23.382;2023-12-20T03:29:41;149296.88;;;0.81;100.00
10006;BME280;5042;42.626;23.382;2023-12-20T03:32:09;149256.97;;;0.65;100.00
10006;BME280;5042;42.626;23.382;2023-12-20T03:34:36;149250.53;;;0.62;100.00
10006;BME280;5042;42.626;23.382;2023-12-20T03:37:03;149326.47;;;0.93;100.00
10006;BME280;5042;42.626;23.382;2023-12-20T03:39:30;149285.28;;;0.76;100.00
10006;BME280;5042;42.626;23.382;2023-12-20T03:41:57;149280.13;;;0.74;100.00
10006;BME280;5042;42.626;23.382;2023-12-20T03:44:24;149285.28;;;0.76;100.00
10006;BME280;5042;42.626;23.382;2023-12-20T03:46:50;149236.34;;;0.57;100.00
10006;BME280;5042;42.626;23.382;2023-12-20T03:49:19;149223.50;;;0.52;100.00
10006;BME280;5042;42.626;23.382;2023-12-20T03:51:46;149229.94;;;0.54;100.00
10006;BME280;5042;42.626;23.382;2023-12-20T03:54:13;149211.91;;;0.47;100.00
10006;BME280;5042;42.626;23.382;2023-12-20T03:56:39;149206.75;;;0.45;100.00
10006;BME280;5042;42.626;23.382;2023-12-20T03:59:06;149206.75;;;0.45;100.00
10006;BME280;5042;42.626;23.382;2023-12-20T04:01:34;149210.63;;;0.47;100.00
10006;BME280;5042;42.626;23.382;2023-12-20T04:04:01;149190.06;;;0.38;100.00
10006;BME280;5042;42.626;23.382;2023-12-20T04:06:29;149220.94;;;0.51;100.00
10006;BME280;5042;42.626;23.382;2023-12-20T04:08:56;149200.34;;;0.42;100.00
10006;BME280;5042;42.626;23.382;2023-12-20T04:11:23;149236.34;;;0.57;100.00
10006;BME280;5042;42.626;23.382;2023-12-20T04:13:50;149254.38;;;0.64;100.00
10006;BME280;5042;42.626;23.382;2023-12-20T04:16:17;149223.50;;;0.52;100.00
10006;BME280;5042;42.626;23.382;2023-12-20T04:18:44;149215.78;;;0.49;100.00
10006;BME280;5042;42.626;23.382;2023-12-20T04:21:11;149105.16;;;0.05;100.00
10006;BME280;5042;42.626;23.382;2023-12-20T04:23:39;149119.34;;;0.10;100.00
10006;BME280;5042;42.626;23.382;2023-12-20T04:26:06;149130.91;;;0.15;100.00
10006;BME280;5042;42.626;23.382;2023-12-20T04:28:33;149125.75;;;0.13;100.00
10006;BME280;5042;42.626;23.382;2023-12-20T04:31:00;149100.06;;;0.03;100.00
10006;BME280;5042;42.626;23.382;2023-12-20T04:33:27;149120.63;;;0.11;100.00
10006;BME280;5042;42.626;23.382;2023-12-20T04:35:53;149125.75;;;0.13;100.00
10006;BME280;5042;42.626;23.382;2023-12-20T04:38:21;149100.06;;;0.03;100.00
10006;BME280;5042;42.626;23.382;2023-12-20T04:40:49;149112.91;;;0.08;100.00
10006;BME280;5042;42.626;23.382;2023-12-20T04:43:16;149110.31;;;0.07;100.00
10006;BME280;5042;42.626;23.382;2023-12-20T04:45:43;149138.63;;;0.18;100.00
10006;BME280;5042;42.626;23.382;2023-12-20T04:48:09;149125.75;;;0.13;100.00
10006;BME280;5042;42.626;23.382;2023-12-20T04:50:37;149110.31;;;0.07;100.00
10006;BME280;5042;42.626;23.382;2023-12-20T04:53:04;149127.03;;;0.13;100.00
10006;BME280;5042;42.626;23.382;2023-12-20T04:55:31;149124.47;;;0.12;100.00
10006;BME280;5042;42.626;23.382;2023-12-20T04:57:59;149128.31;;;0.14;100.00
10006;BME280;5042;42.626;23.382;2023-12-20T05:00:26;149138.63;;;0.18;100.00
10006;BME280;5042;42.626;23.382;2023-12-20T05:02:53;149146.31;;;0.21;100.00
10006;BME280;5042;42.626;23.382;2023-12-20T05:05:20;149154.06;;;0.24;100.00
10006;BME280;5042;42.626;23.382;2023-12-20T05:07:47;149145.03;;;0.20;100.00
10006;BME280;5042;42.626;23.382;2023-12-20T05:10:14;149129.63;;;0.14;100.00
10006;BME280;5042;42.626;23.382;2023-12-20T05:12:41;149106.47;;;0.05;100.00
10006;BME280;5042;42.626;23.382;2023-12-20T05:15:09;149097.47;;;0.02;100.00
10006;BME280;5042;42.626;23.382;2023-12-20T05:17:36;149048.59;;;-0.18;100.00
10006;BME280;5042;42.626;23.382;2023-12-20T05:20:04;148997.16;;;-0.38;100.00
10006;BME280;5042;42.626;23.382;2023-12-20T05:22:31;148881.50;;;-0.84;100.00
10006;BME280;5042;42.626;23.382;2023-12-20T05:24:58;148845.53;;;-0.99;100.00
10006;BME280;5042;42.626;23.382;2023-12-20T05:27:25;148791.59;;;-1.20;100.00
10006;BME280;5042;42.626;23.382;2023-12-20T05:29:52;148736.38;;;-1.42;100.00
10006;BME280;5042;42.626;23.382;2023-12-20T05:32:24;148699.09;;;-1.57;100.00
10006;BME280;5042;42.626;23.382;2023-12-20T05:34:51;148702.97;;;-1.56;100.00
10006;BME280;5042;42.626;23.382;2023-12-20T05:37:18;148658.00;;;-1.74;100.00
10006;BME280;5042;42.626;23.382;2023-12-20T05:39:45;148670.84;;;-1.68;100.00
10006;BME280;5042;42.626;23.382;2023-12-20T05:42:12;148664.41;;;-1.71;100.00
10006;BME280;5042;42.626;23.382;2023-12-20T05:44:39;148631.06;;;-1.84;100.00
10006;BME280;5042;42.626;23.382;2023-12-20T05:47:06;148616.91;;;-1.90;100.00
10006;BME280;5042;42.626;23.382;2023-12-20T05:49:34;148637.47;;;-1.82;100.00
10006;BME280;5042;42.626;23.382;2023-12-20T05:52:01;148642.63;;;-1.80;100.00
10006;BME280;5042;42.626;23.382;2023-12-20T05:54:29;148654.19;;;-1.75;100.00
10006;BME280;5042;42.626;23.382;2023-12-20T05:56:56;148649.03;;;-1.77;100.00
10006;BME280;5042;42.626;23.382;2023-12-20T05:59:23;148669.56;;;-1.69;100.00
10006;BME280;5042;42.626;23.382;2023-12-20T06:01:50;148722.22;;;-1.48;100.00
10006;BME280;5042;42.626;23.382;2023-12-20T06:04:17;148727.34;;;-1.46;100.00
10006;BME280;5042;42.626;23.382;2023-12-20T06:06:45;148663.16;;;-1.72;100.00
10006;BME280;5042;42.626;23.382;2023-12-20T06:09:12;148646.44;;;-1.78;100.00
10006;BME280;5042;42.626;23.382;2023-12-20T06:11:40;148656.72;;;-1.74;100.00
10006;BME280;5042;42.626;23.382;2023-12-20T06:14:07;148620.78;;;-1.88;100.00
10006;BME280;5042;42.626;23.382;2023-12-20T06:16:34;148619.50;;;-1.89;100.00
10006;BME280;5042;42.626;23.382;2023-12-20T06:19:01;148611.81;;;-1.92;100.00
10006;BME280;5042;42.626;23.382;2023-12-20T06:21:28;148596.38;;;-1.98;100.00
10006;BME280;5042;42.626;23.382;2023-12-20T06:23:56;148588.72;;;-2.01;100.00
10006;BME280;5042;42.626;23.382;2023-12-20T06:26:23;148597.66;;;-1.98;100.00
10006;BME280;5042;42.626;23.382;2023-12-20T06:28:50;148604.09;;;-1.95;100.00
10006;BME280;5042;42.626;23.382;2023-12-20T06:31:17;148624.66;;;-1.87;100.00
10006;BME280;5042;42.626;23.382;2023-12-20T06:33:44;148642.63;;;-1.80;100.00
10006;BME280;5042;42.626;23.382;2023-12-20T06:36:11;148634.88;;;-1.83;100.00
10006;BME280;5042;42.626;23.382;2023-12-20T06:38:39;148642.63;;;-1.80;100.00
10006;BME280;5042;42.626;23.382;2023-12-20T06:41:10;148651.59;;;-1.76;100.00
10006;BME280;5042;42.626;23.382;2023-12-20T06:43:39;148724.81;;;-1.47;100.00
10006;BME280;5042;42.626;23.382;2023-12-20T06:46:06;148745.34;;;-1.39;100.00
10006;BME280;5042;42.626;23.382;2023-12-20T06:48:33;148737.66;;;-1.42;100.00
10006;BME280;5042;42.626;23.382;2023-12-20T06:51:00;148727.34;;;-1.46;100.00
10006;BME280;5042;42.626;23.382;2023-12-20T06:53:27;148719.66;;;-1.49;100.00
10006;BME280;5042;42.626;23.382;2023-12-20T06:55:54;148701.69;;;-1.56;100.00
10006;BME280;5042;42.626;23.382;2023-12-20T06:58:23;148722.22;;;-1.48;100.00
10006;BME280;5042;42.626;23.382;2023-12-20T07:00:50;148697.81;;;-1.58;100.00
10006;BME280;5042;42.626;23.382;2023-12-20T07:03:18;148753.03;;;-1.36;100.00
10006;BME280;5042;42.626;23.382;2023-12-20T07:05:44;148785.16;;;-1.23;100.00
10006;BME280;5042;42.626;23.382;2023-12-20T07:08:11;148813.41;;;-1.12;100.00
10006;BME280;5042;42.626;23.382;2023-12-20T07:10:39;148830.09;;;-1.05;100.00
10006;BME280;5042;42.626;23.382;2023-12-20T07:13:07;148873.81;;;-0.88;100.00
10006;BME280;5042;42.626;23.382;2023-12-20T07:15:35;148893.09;;;-0.80;100.00
10006;BME280;5042;42.626;23.382;2023-12-20T07:18:03;148890.47;;;-0.81;100.00
10006;BME280;5042;42.626;23.382;2023-12-20T07:20:30;148962.44;;;-0.52;100.00
10006;BME280;5042;42.626;23.382;2023-12-20T07:22:57;149019.03;;;-0.30;100.00
10006;BME280;5042;42.626;23.382;2023-12-20T07:25:24;148783.84;;;-1.23;100.00
10006;BME280;5042;42.626;23.382;2023-12-20T07:27:51;149046.06;;;-0.19;100.00
10006;BME280;5042;42.626;23.382;2023-12-20T07:30:19;149057.59;;;-0.14;100.00
10006;BME280;5042;42.626;23.382;2023-12-20T07:32:47;149062.72;;;-0.12;100.00
10006;BME280;5042;42.626;23.382;2023-12-20T07:35:15;148994.63;;;-0.39;100.00
10006;BME280;5042;42.626;23.382;2023-12-20T07:37:42;149024.19;;;-0.28;100.00
10006;BME280;5042;42.626;23.382;2023-12-20T07:40:10;148980.50;;;-0.45;100.00
10006;BME280;5042;42.626;23.382;2023-12-20T07:42:37;148884.06;;;-0.83;100.00
10006;BME280;5042;42.626;23.382;2023-12-20T07:45:05;149030.59;;;-0.25;100.00
10006;BME280;5042;42.626;23.382;2023-12-20T07:47:32;148976.63;;;-0.47;100.00
10006;BME280;5042;42.626;23.382;2023-12-20T07:50:01;148990.75;;;-0.41;100.00
10006;BME280;5042;42.626;23.382;2023-12-20T07:52:29;148956.03;;;-0.55;100.00
10006;BME280;5042;42.626;23.382;2023-12-20T07:54:56;148953.47;;;-0.56;100.00
10006;BME280;5042;42.626;23.382;2023-12-20T07:57:23;148959.91;;;-0.53;100.00
10006;BME280;5042;42.626;23.382;2023-12-20T07:59:50;148999.75;;;-0.37;100.00
10006;BME280;5042;42.626;23.382;2023-12-20T08:02:17;148974.03;;;-0.48;100.00
10006;BME280;5042;42.626;23.382;2023-12-20T08:04:44;149061.47;;;-0.13;100.00
10006;BME280;5042;42.626;23.382;2023-12-20T08:07:12;148999.75;;;-0.37;100.00
10006;BME280;5042;42.626;23.382;2023-12-20T08:09:40;148971.47;;;-0.49;100.00
10006;BME280;5042;42.626;23.382;2023-12-20T08:12:07;149006.19;;;-0.35;100.00
10006;BME280;5042;42.626;23.382;2023-12-20T08:14:35;149022.91;;;-0.28;100.00
10006;BME280;5042;42.626;23.382;2023-12-20T08:17:02;149044.72;;;-0.19;100.00
10006;BME280;5042;42.626;23.382;2023-12-20T08:19:28;149047.34;;;-0.18;100.00
10006;BME280;5042;42.626;23.382;2023-12-20T08:21:55;149051.16;;;-0.17;100.00
10006;BME280;5042;42.626;23.382;2023-12-20T08:24:24;149048.59;;;-0.18;100.00
10006;BME280;5042;42.626;23.382;2023-12-20T08:26:51;149034.47;;;-0.24;100.00
10006;BME280;5042;42.626;23.382;2023-12-20T08:29:18;149048.59;;;-0.18;100.00
10006;BME280;5042;42.626;23.382;2023-12-20T08:31:45;149030.59;;;-0.25;100.00
10006;BME280;5042;42.626;23.382;2023-12-20T08:34:12;149071.75;;;-0.09;100.00
10006;BME280;5042;42.626;23.382;2023-12-20T08:36:40;149078.19;;;-0.06;100.00
10006;BME280;5042;42.626;23.382;2023-12-20T08:39:07;149082.06;;;-0.05;100.00
10006;BME280;5042;42.626;23.382;2023-12-20T08:41:35;149119.34;;;0.10;100.00
10006;BME280;5042;42.626;23.382;2023-12-20T08:44:03;149119.34;;;0.10;100.00
10006;BME280;5042;42.626;23.382;2023-12-20T08:46:30;149121.88;;;0.11;100.00
10006;BME280;5042;42.626;23.382;2023-12-20T08:48:57;149151.47;;;0.23;100.00
10006;BME280;5042;42.626;23.382;2023-12-20T08:51:24;149215.78;;;0.49;100.00
10006;BME280;5042;42.626;23.382;2023-12-20T08:53:51;149220.94;;;0.51;100.00
10006;BME280;5042;42.626;23.382;2023-12-20T08:56:18;149226.09;;;0.53;100.00
10006;BME280;5042;42.626;23.382;2023-12-20T08:58:46;149177.22;;;0.33;100.00
10006;BME280;5042;42.626;23.382;2023-12-20T09:01:13;149166.91;;;0.29;100.00
10006;BME280;5042;42.626;23.382;2023-12-20T09:03:40;149166.91;;;0.29;100.00
10006;BME280;5042;42.626;23.382;2023-12-20T09:06:07;149187.47;;;0.37;100.00
10006;BME280;5042;42.626;23.382;2023-12-20T09:08:34;149192.63;;;0.39;100.00
10006;BME280;5042;42.626;23.382;2023-12-20T09:11:01;149178.50;;;0.34;100.00
10006;BME280;5042;42.626;23.382;2023-12-20T09:13:28;149187.47;;;0.37;100.00
10006;BME280;5042;42.626;23.382;2023-12-20T09:15:58;149209.38;;;0.46;100.00
10006;BME280;5042;42.626;23.382;2023-12-20T09:18:26;149196.50;;;0.41;100.00
10006;BME280;5042;42.626;23.382;2023-12-20T09:20:52;149228.66;;;0.54;100.00
10006;BME280;5042;42.626;23.382;2023-12-20T09:23:19;149241.50;;;0.59;100.00
10006;BME280;5042;42.626;23.382;2023-12-20T09:25:46;149195.22;;;0.40;100.00
10006;BME280;5042;42.626;23.382;2023-12-20T09:28:13;149164.31;;;0.28;100.00
10006;BME280;5042;42.626;23.382;2023-12-20T09:30:40;149165.66;;;0.29;100.00
10006;BME280;5042;42.626;23.382;2023-12-20T09:33:08;149161.78;;;0.27;100.00
10006;BME280;5042;42.626;23.382;2023-12-20T09:35:35;149172.06;;;0.31;100.00
10006;BME280;5042;42.626;23.382;2023-12-20T09:38:02;149160.50;;;0.27;100.00
10006;BME280;5042;42.626;23.382;2023-12-20T09:40:32;149128.31;;;0.14;100.00
10006;BME280;5042;42.626;23.382;2023-12-20T09:43:03;149002.31;;;-0.36;100.00
10006;BME280;5042;42.626;23.382;2023-12-20T09:45:31;149155.34;;;0.25;100.00
10006;BME280;5042;42.626;23.382;2023-12-20T09:47:58;149231.25;;;0.55;100.00
10006;BME280;5042;42.626;23.382;2023-12-20T09:50:27;149272.38;;;0.71;100.00
10006;BME280;5042;42.626;23.382;2023-12-20T09:52:57;149295.53;;;0.80;100.00
10006;BME280;5042;42.626;23.382;2023-12-20T09:55:25;149362.50;;;1.07;100.00
10006;BME280;5042;42.626;23.382;2023-12-20T09:57:53;149390.78;;;1.18;100.00
10006;BME280;5042;42.626;23.382;2023-12-20T10:00:20;149388.22;;;1.17;100.00
10006;BME280;5042;42.626;23.382;2023-12-20T10:02:55;149447.44;;;1.41;100.00
10006;BME280;5042;42.626;23.382;2023-12-20T10:05:28;149486.06;;;1.56;100.00
10006;BME280;5042;42.626;23.382;2023-12-20T10:07:55;149519.56;;;1.69;100.00
10006;BME280;5042;42.626;23.382;2023-12-20T10:10:22;149545.28;;;1.80;100.00
10006;BME280;5042;42.626;23.382;2023-12-20T10:13:01;149558.16;;;1.85;100.00
10006;BME280;5042;42.626;23.382;2023-12-20T10:15:29;149578.78;;;1.93;100.00
10006;BME280;5042;42.626;23.382;2023-12-20T10:17:56;149555.59;;;1.84;100.00
10006;BME280;5042;42.626;23.382;2023-12-20T10:20:23;149518.28;;;1.69;100.00
10006;BME280;5042;42.626;23.382;2023-12-20T10:22:52;149462.88;;;1.47;100.00
10006;BME280;5042;42.626;23.382;2023-12-20T10:25:20;149491.22;;;1.58;100.00
10006;BME280;5042;42.626;23.382;2023-12-20T10:27:47;149444.84;;;1.40;100.00
10006;BME280;5042;42.626;23.382;2023-12-20T10:30:14;149416.56;;;1.29;100.00
10006;BME280;5042;42.626;23.382;2023-12-20T10:32:41;149438.41;;;1.37;100.00
10006;BME280;5042;42.626;23.382;2023-12-20T10:35:08;149406.25;;;1.24;100.00
10006;BME280;5042;42.626;23.382;2023-12-20T10:37:36;149433.25;;;1.35;100.00
10006;BME280;5042;42.626;23.382;2023-12-20T10:40:06;149466.75;;;1.48;100.00
10006;BME280;5042;42.626;23.382;2023-12-20T10:42:33;149453.88;;;1.43;100.00
10006;BME280;5042;42.626;23.382;2023-12-20T10:45:01;149478.34;;;1.53;100.00
10006;BME280;5042;42.626;23.382;2023-12-20T10:47:30;149498.91;;;1.61;100.00
10006;BME280;5042;42.626;23.382;2023-12-20T10:49:59;149483.50;;;1.55;100.00
10006;BME280;5042;42.626;23.382;2023-12-20T10:52:27;149438.41;;;1.37;100.00
10006;BME280;5042;42.626;23.382;2023-12-20T10:54:56;149525.97;;;1.72;100.00
10006;BME280;5042;42.626;23.382;2023-12-20T10:57:27;149541.47;;;1.78;100.00
10006;BME280;5042;42.626;23.382;2023-12-20T10:59:56;149541.47;;;1.78;100.00
10006;BME280;5042;42.626;23.382;2023-12-20T11:02:27;149518.28;;;1.69;100.00
10006;BME280;5042;42.626;23.382;2023-12-20T11:05:01;149559.50;;;1.85;100.00
10006;BME280;5042;42.626;23.382;2023-12-20T11:07:36;149439.75;;;1.38;100.00
10006;BME280;5042;42.626;23.382;2023-12-20T11:10:11;149519.56;;;1.69;100.00
10006;BME280;5042;42.626;23.382;2023-12-20T11:12:46;149496.38;;;1.60;100.00
10006;BME280;5042;42.626;23.382;2023-12-20T11:15:14;149540.13;;;1.78;100.00
10006;BME280;5042;42.626;23.382;2023-12-20T11:17:44;149531.13;;;1.74;100.00
10006;BME280;5042;42.626;23.382;2023-12-20T11:20:11;149501.53;;;1.62;100.00
10006;BME280;5042;42.626;23.382;2023-12-20T11:22:40;149524.72;;;1.72;100.00
10006;BME280;5042;42.626;23.382;2023-12-20T11:25:18;149519.56;;;1.69;100.00
10006;BME280;5042;42.626;23.382;2023-12-20T11:28:08;149504.06;;;1.63;100.00
10006;BME280;5042;42.626;23.382;2023-12-20T11:30:43;149504.06;;;1.63;100.00
10006;BME280;5042;42.626;23.382;2023-12-20T11:33:13;149488.66;;;1.57;100.00
10006;BME280;5042;42.626;23.382;2023-12-20T11:35:40;149478.34;;;1.53;100.00
10006;BME280;5042;42.626;23.382;2023-12-20T11:38:08;149487.38;;;1.57;100.00
10006;BME280;5042;42.626;23.382;2023-12-20T11:40:35;149514.38;;;1.67;100.00
10006;BME280;5042;42.626;23.382;2023-12-20T11:43:04;149500.25;;;1.62;100.00
10006;BME280;5042;42.626;23.382;2023-12-20T11:45:31;149475.78;;;1.52;100.00
10006;BME280;5042;42.626;23.382;2023-12-20T11:48:01;149496.38;;;1.60;100.00
10006;BME280;5042;42.626;23.382;2023-12-20T11:50:29;149506.69;;;1.64;100.00
10006;BME280;5042;42.626;23.382;2023-12-20T11:52:56;149545.28;;;1.80;100.00
10006;BME280;5042;42.626;23.382;2023-12-20T11:55:24;149520.81;;;1.70;100.00
10006;BME280;5042;42.626;23.382;2023-12-20T11:57:51;149560.75;;;1.86;100.00
10006;BME280;5042;42.626;23.382;2023-12-20T12:00:20;149550.44;;;1.82;100.00
10006;BME280;5042;42.626;23.382;2023-12-20T12:02:58;149546.56;;;1.80;100.00
10006;BME280;5042;42.626;23.382;2023-12-20T12:05:25;149594.22;;;1.99;100.00
10006;BME280;5042;42.626;23.382;2023-12-20T12:07:53;149589.13;;;1.97;100.00
10006;BME280;5042;42.626;23.382;2023-12-20T12:10:20;149609.69;;;2.05;100.00
10006;BME280;5042;42.626;23.382;2023-12-20T12:12:46;149620.00;;;2.09;100.00
10006;BME280;5042;42.626;23.382;2023-12-20T12:15:14;149635.44;;;2.16;100.00
10006;BME280;5042;42.626;23.382;2023-12-20T12:17:43;149658.66;;;2.25;100.00
10006;BME280;5042;42.626;23.382;2023-12-20T12:20:10;149699.88;;;2.41;100.00
10006;BME280;5042;42.626;23.382;2023-12-20T12:22:38;149707.59;;;2.44;100.00
10006;BME280;5042;42.626;23.382;2023-12-20T12:25:12;149723.06;;;2.50;100.00
10006;BME280;5042;42.626;23.382;2023-12-20T12:27:40;149770.75;;;2.69;100.00
10006;BME280;5042;42.626;23.382;2023-12-20T12:30:08;149748.84;;;2.61;100.00
10006;BME280;5042;42.626;23.382;2023-12-20T12:32:36;149797.84;;;2.80;100.00
10006;BME280;5042;42.626;23.382;2023-12-20T12:35:05;149852.00;;;3.02;100.00
10006;BME280;5042;42.626;23.382;2023-12-20T12:37:34;149846.81;;;3.00;100.00
10006;BME280;5042;42.626;23.382;2023-12-20T12:40:04;149844.22;;;2.98;100.00
10006;BME280;5042;42.626;23.382;2023-12-20T12:42:31;149862.25;;;3.06;100.00
10006;BME280;5042;42.626;23.382;2023-12-20T12:44:58;149864.88;;;3.07;100.00
10006;BME280;5042;42.626;23.382;2023-12-20T12:47:25;149882.91;;;3.14;100.00
10006;BME280;5042;42.626;23.382;2023-12-20T12:49:52;149899.69;;;3.21;100.00